Time;durP1;ratioP1;P1;durP2;ratioP2;P2;SDS_P1;SDS_P2;PMS_P1;PMS_P2;Temp;Humidity;BMP_temperature;BMP_pressure;BME280_temperature;BME280_humidity;BME280_pressure;Samples;Min_cycle;Max_cycle;Signal;HPM_P1;HPM_P2
2021/06/22 00:00:49;;;;;;;54.40;7.60;;;26.80;94.10;;;;;;4994065;28;20054;-75
2021/06/22 00:03:15;;;;;;;55.47;8.30;;;26.70;94.20;;;;;;4992440;28;20475;-75
2021/06/22 00:05:41;;;;;;;53.30;8.35;;;26.60;94.30;;;;;;4988032;28;20038;-75
2021/06/22 00:08:06;;;;;;;61.88;8.57;;;26.50;94.40;;;;;;4994177;28;20530;-74
2021/06/22 00:10:33;;;;;;;64.70;8.38;;;26.50;94.30;;;;;;4994456;28;20105;-75
2021/06/22 00:12:59;;;;;;;67.47;8.15;;;26.50;94.50;;;;;;4993879;28;20058;-74
2021/06/22 00:15:27;;;;;;;63.13;8.95;;;26.50;94.50;;;;;;4993757;28;20422;-75
2021/06/22 00:17:53;;;;;;;46.20;6.55;;;26.50;94.60;;;;;;4994098;28;20081;-75
2021/06/22 00:20:21;;;;;;;58.22;7.55;;;26.50;94.60;;;;;;4985225;28;20422;-75
2021/06/22 00:22:48;;;;;;;80.15;8.27;;;26.50;94.70;;;;;;4993359;28;20019;-74
2021/06/22 00:25:16;;;;;;;48.78;6.80;;;26.40;94.70;;;;;;4993621;28;20034;-74
2021/06/22 00:27:42;;;;;;;66.13;7.68;;;26.40;95.20;;;;;;4993313;28;20110;-74
2021/06/22 00:30:09;;;;;;;53.15;7.75;;;26.30;94.90;;;;;;4992094;28;20060;-74
2021/06/22 00:32:35;;;;;;;61.92;7.85;;;26.30;95.00;;;;;;4993448;28;20014;-74
2021/06/22 00:35:01;;;;;;;60.88;8.32;;;26.30;94.90;;;;;;4993861;28;20080;-74
2021/06/22 00:37:27;;;;;;;52.97;7.53;;;26.30;95.00;;;;;;4993685;28;20031;-74
2021/06/22 00:39:52;;;;;;;47.53;8.35;;;26.30;95.10;;;;;;4993666;28;20027;-73
2021/06/22 00:42:18;;;;;;;57.50;8.38;;;26.30;95.10;;;;;;4993237;28;20479;-74
2021/06/22 00:44:45;;;;;;;71.45;9.20;;;26.30;95.10;;;;;;4993820;28;20018;-74
2021/06/22 00:47:10;;;;;;;67.32;8.90;;;26.30;95.20;;;;;;4993750;28;20030;-74
2021/06/22 00:49:36;;;;;;;98.47;9.38;;;26.30;95.20;;;;;;4993363;28;20030;-74
2021/06/22 00:52:02;;;;;;;64.00;8.18;;;26.30;95.50;;;;;;4991985;28;20069;-74
2021/06/22 00:54:28;;;;;;;48.60;7.30;;;26.30;95.30;;;;;;4993168;28;20030;-74
2021/06/22 00:56:54;;;;;;;64.05;7.85;;;26.30;95.30;;;;;;4993417;28;20030;-74
2021/06/22 00:59:19;;;;;;;58.47;7.05;;;26.30;95.40;;;;;;4993240;28;20032;-74
2021/06/22 01:01:45;;;;;;;55.72;8.38;;;26.30;95.50;;;;;;4975968;28;20050;-74
2021/06/22 01:04:11;;;;;;;74.18;8.35;;;26.20;95.70;;;;;;4992534;28;20053;-74
2021/06/22 01:06:37;;;;;;;63.45;7.05;;;26.20;95.80;;;;;;4992767;28;20026;-74
2021/06/22 01:09:05;;;;;;;44.63;7.50;;;26.20;95.90;;;;;;4984884;28;20023;-74
2021/06/22 01:11:31;;;;;;;64.47;9.65;;;26.20;96.00;;;;;;4992406;28;20027;-74
2021/06/22 01:13:56;;;;;;;76.88;9.32;;;26.10;96.00;;;;;;4990815;28;20143;-75
2021/06/22 01:16:24;;;;;;;57.72;8.90;;;26.10;96.10;;;;;;4973496;28;20026;-74
2021/06/22 01:19:00;;;;;;;49.28;7.80;;;26.00;96.20;;;;;;4990746;28;20027;-74
2021/06/22 01:21:28;;;;;;;59.15;9.70;;;25.90;96.30;;;;;;4990807;28;20226;-74
2021/06/22 01:23:54;;;;;;;52.38;8.15;;;25.90;96.40;;;;;;4991109;28;20057;-75
2021/06/22 01:26:20;;;;;;;83.95;8.27;;;25.90;96.50;;;;;;4990762;28;20050;-74
2021/06/22 01:28:46;;;;;;;42.53;6.78;;;25.80;96.50;;;;;;4991358;28;20097;-73
2021/06/22 01:31:13;;;;;;;36.17;7.07;;;25.80;96.70;;;;;;4992601;28;20395;-74
2021/06/22 01:33:44;;;;;;;59.60;7.93;;;25.80;96.80;;;;;;4992352;28;20105;-74
2021/06/22 01:36:10;;;;;;;53.60;7.97;;;25.70;96.90;;;;;;4992667;28;20022;-74
2021/06/22 01:38:36;;;;;;;48.97;7.43;;;25.70;97.00;;;;;;4992680;28;20068;-74
2021/06/22 01:41:02;;;;;;;63.10;8.18;;;25.70;97.10;;;;;;4992769;28;20087;-73
2021/06/22 01:43:27;;;;;;;58.75;7.78;;;25.70;97.20;;;;;;4992601;28;20026;-74
2021/06/22 01:45:53;;;;;;;61.83;8.57;;;25.60;97.30;;;;;;4991606;28;20061;-74
2021/06/22 01:48:19;;;;;;;55.17;7.82;;;25.60;97.30;;;;;;4992720;28;20117;-74
2021/06/22 01:50:45;;;;;;;57.97;7.95;;;25.60;97.30;;;;;;4991855;28;20092;-73
2021/06/22 01:53:11;;;;;;;54.53;8.18;;;25.60;97.30;;;;;;4995929;28;20050;-75
2021/06/22 01:55:42;;;;;;;66.30;8.40;;;25.60;97.40;;;;;;4992857;28;20073;-75
2021/06/22 01:58:13;;;;;;;43.47;8.68;;;25.50;97.40;;;;;;4992765;28;20468;-74
2021/06/22 02:00:40;;;;;;;48.92;8.52;;;25.50;97.60;;;;;;4992333;28;20121;-73
2021/06/22 02:03:12;;;;;;;47.75;7.45;;;25.50;97.60;;;;;;4992379;28;20049;-74
2021/06/22 02:05:37;;;;;;;59.55;9.77;;;25.40;97.70;;;;;;5000258;28;20072;-74
2021/06/22 02:08:03;;;;;;;67.45;8.57;;;25.40;98.00;;;;;;4997839;28;20077;-74
2021/06/22 02:10:29;;;;;;;64.53;8.43;;;25.40;97.90;;;;;;4992713;28;20541;-75
2021/06/22 02:12:55;;;;;;;51.20;8.65;;;25.30;98.20;;;;;;5002324;28;20475;-73
2021/06/22 02:15:21;;;;;;;69.07;8.68;;;25.30;98.40;;;;;;4995878;28;20033;-75
2021/06/22 02:17:46;;;;;;;50.28;8.07;;;25.30;98.40;;;;;;4996204;28;20023;-74
2021/06/22 02:20:13;;;;;;;47.22;8.98;;;25.30;98.70;;;;;;4996575;28;20575;-74
2021/06/22 02:22:39;;;;;;;60.55;8.18;;;25.30;98.80;;;;;;5004109;28;20112;-74
2021/06/22 02:25:08;;;;;;;57.30;8.40;;;25.30;99.00;;;;;;5009582;28;20539;-76
2021/06/22 02:27:35;;;;;;;46.35;7.97;;;25.30;99.10;;;;;;4995962;28;20118;-76
2021/06/22 02:30:02;;;;;;;57.10;9.05;;;25.30;99.30;;;;;;4996245;28;20030;-74
2021/06/22 02:32:28;;;;;;;49.63;9.88;;;25.40;99.30;;;;;;4995582;28;20033;-73
2021/06/22 02:34:54;;;;;;;56.30;8.13;;;25.50;99.60;;;;;;5009409;28;20026;-75
2021/06/22 02:37:19;;;;;;;45.15;8.60;;;25.50;99.50;;;;;;4995920;28;20026;-75
2021/06/22 02:39:46;;;;;;;64.18;7.97;;;25.50;99.70;;;;;;4995471;28;20115;-74
2021/06/22 02:42:12;;;;;;;44.85;8.65;;;25.40;99.60;;;;;;4999800;28;20044;-75
2021/06/22 02:44:38;;;;;;;55.30;8.57;;;25.40;99.70;;;;;;5012264;28;20398;-74
2021/06/22 02:47:04;;;;;;;60.80;8.25;;;25.40;99.70;;;;;;4995854;28;20367;-75
2021/06/22 02:49:30;;;;;;;55.90;8.82;;;25.40;99.70;;;;;;4995846;28;20609;-72
2021/06/22 02:51:56;;;;;;;58.95;9.90;;;25.40;99.90;;;;;;4995788;28;20120;-74
2021/06/22 02:54:23;;;;;;;62.28;9.32;;;25.30;99.90;;;;;;4995374;28;20026;-73
2021/06/22 02:56:48;;;;;;;63.10;9.25;;;25.40;99.90;;;;;;4995419;28;20128;-73
2021/06/22 02:59:14;;;;;;;62.35;8.65;;;25.40;99.90;;;;;;4990882;28;20475;-74
2021/06/22 03:01:40;;;;;;;42.40;7.60;;;25.40;99.90;;;;;;4989763;28;20377;-74
2021/06/22 03:04:05;;;;;;;56.78;9.10;;;25.30;99.90;;;;;;4984092;28;20402;-73
2021/06/22 03:06:31;;;;;;;60.55;9.20;;;25.30;99.90;;;;;;4995529;28;20022;-73
2021/06/22 03:08:57;;;;;;;58.30;9.60;;;25.30;99.90;;;;;;4992789;28;20015;-73
2021/06/22 03:11:23;;;;;;;65.65;9.32;;;25.30;99.90;;;;;;4989779;28;20093;-73
2021/06/22 03:13:49;;;;;;;72.78;10.32;;;25.30;99.90;;;;;;4981307;28;20053;-74
2021/06/22 03:16:14;;;;;;;53.35;8.57;;;25.40;99.90;;;;;;4989010;28;20062;-74
2021/06/22 03:18:40;;;;;;;48.60;8.32;;;25.40;99.90;;;;;;4991350;28;20026;-74
2021/06/22 03:21:06;;;;;;;40.50;8.98;;;25.30;99.90;;;;;;4994802;28;20399;-74
2021/06/22 03:23:31;;;;;;;61.53;8.90;;;25.30;99.90;;;;;;4994627;28;20022;-72
2021/06/22 03:25:57;;;;;;;44.45;9.20;;;25.30;99.90;;;;;;4994277;28;20102;-73
2021/06/22 03:28:23;;;;;;;39.25;7.75;;;25.30;99.90;;;;;;4995367;28;20596;-73
2021/06/22 03:30:48;;;;;;;60.97;9.70;;;25.30;99.90;;;;;;4995052;28;20053;-74
2021/06/22 03:33:14;;;;;;;72.20;10.05;;;25.40;99.90;;;;;;4994741;28;20356;-74
2021/06/22 03:35:40;;;;;;;45.08;8.30;;;25.40;99.90;;;;;;4994749;28;20019;-73
2021/06/22 03:38:06;;;;;;;56.75;8.00;;;25.40;99.90;;;;;;4994679;28;20425;-74
2021/06/22 03:40:32;;;;;;;51.95;9.73;;;25.50;99.90;;;;;;4988217;28;20027;-73
2021/06/22 03:42:58;;;;;;;64.13;8.95;;;25.50;99.90;;;;;;4974399;28;20073;-74
2021/06/22 03:45:24;;;;;;;49.65;7.78;;;25.50;99.90;;;;;;4983934;28;20090;-75
2021/06/22 03:47:51;;;;;;;46.17;8.05;;;25.50;99.90;;;;;;4979905;28;20481;-74
2021/06/22 03:50:16;;;;;;;48.55;8.70;;;25.50;99.90;;;;;;4989323;28;20427;-73
2021/06/22 03:52:42;;;;;;;54.80;8.88;;;25.50;99.90;;;;;;4994192;28;20039;-73
2021/06/22 03:55:27;;;;;;;59.88;9.23;;;25.50;99.90;;;;;;4994118;28;20042;-73
2021/06/22 03:57:55;;;;;;;44.90;9.18;;;25.40;99.90;;;;;;4982089;28;20031;-74
2021/06/22 04:00:21;;;;;;;47.08;8.38;;;25.40;99.90;;;;;;4990343;28;20382;-74
2021/06/22 04:02:48;;;;;;;44.85;9.02;;;25.50;99.90;;;;;;4993600;28;20045;-73
2021/06/22 04:05:14;;;;;;;61.53;9.40;;;25.60;99.90;;;;;;4994004;28;20065;-71
2021/06/22 04:07:40;;;;;;;49.95;8.70;;;25.60;99.90;;;;;;4987513;28;20050;-73
2021/06/22 04:10:07;;;;;;;58.60;9.48;;;25.70;99.90;;;;;;4980433;28;20026;-75
2021/06/22 04:12:33;;;;;;;51.92;8.18;;;25.80;99.90;;;;;;4981966;28;20026;-72
2021/06/22 04:14:59;;;;;;;54.97;8.55;;;25.90;99.90;;;;;;4994107;28;20467;-73
2021/06/22 04:17:25;;;;;;;59.60;8.43;;;26.10;99.90;;;;;;4993874;28;20034;-74
2021/06/22 04:19:50;;;;;;;54.13;8.93;;;26.20;99.90;;;;;;4971905;28;20081;-74
2021/06/22 04:22:16;;;;;;;57.45;8.77;;;26.30;99.90;;;;;;4989003;28;20081;-74
2021/06/22 04:24:42;;;;;;;44.28;9.10;;;26.40;99.90;;;;;;4968456;28;20531;-74
2021/06/22 04:27:08;;;;;;;42.42;9.50;;;26.60;99.90;;;;;;4989989;28;20061;-74
2021/06/22 04:29:34;;;;;;;55.10;9.05;;;26.90;99.90;;;;;;4993506;28;20023;-73
2021/06/22 04:31:59;;;;;;;61.20;8.82;;;27.10;99.90;;;;;;4973530;28;20035;-74
2021/06/22 04:34:26;;;;;;;39.53;7.32;;;27.30;99.90;;;;;;4986846;28;20541;-74
2021/06/22 04:36:52;;;;;;;76.78;9.35;;;27.50;99.90;;;;;;4992774;28;20407;-73
2021/06/22 04:39:18;;;;;;;40.20;7.97;;;28.00;99.90;;;;;;4992926;28;20045;-74
2021/06/22 04:41:44;;;;;;;46.10;8.35;;;28.80;99.90;;;;;;4973400;28;20047;-74
2021/06/22 04:44:11;;;;;;;42.47;8.38;;;29.50;99.70;;;;;;4993327;28;20064;-74
2021/06/22 04:46:36;;;;;;;45.17;7.88;;;29.90;99.20;;;;;;4985114;28;20030;-73
2021/06/22 04:49:03;;;;;;;53.33;8.82;;;30.30;98.60;;;;;;4993316;28;20177;-72
2021/06/22 04:51:28;;;;;;;70.55;8.10;;;31.00;98.20;;;;;;4991295;28;20047;-75
2021/06/22 04:53:54;;;;;;;34.47;7.35;;;31.40;97.50;;;;;;4966788;28;20035;-75
2021/06/22 04:56:25;;;;;;;49.15;8.38;;;31.60;97.00;;;;;;4975800;28;20372;-73
2021/06/22 04:58:53;;;;;;;45.60;8.45;;;31.90;96.70;;;;;;4993023;28;20026;-76
2021/06/22 05:01:19;;;;;;;39.05;6.75;;;32.40;96.20;;;;;;4991410;28;20390;-75
2021/06/22 05:03:46;;;;;;;55.38;7.90;;;32.50;95.80;;;;;;4954401;28;20027;-75
2021/06/22 05:06:12;;;;;;;57.13;7.65;;;33.00;95.50;;;;;;4984941;28;20035;-76
2021/06/22 05:08:39;;;;;;;38.03;7.05;;;33.60;95.10;;;;;;4982392;28;20394;-76
2021/06/22 05:11:05;;;;;;;42.30;6.80;;;33.70;94.70;;;;;;4979562;28;20026;-77
2021/06/22 05:13:31;;;;;;;53.17;7.32;;;33.60;94.70;;;;;;4980725;28;20022;-78
2021/06/22 05:15:57;;;;;;;35.28;6.25;;;34.10;94.40;;;;;;4989917;28;20026;-79
2021/06/22 05:18:23;;;;;;;50.20;8.75;;;34.10;94.30;;;;;;4993189;28;20104;-79
2021/06/22 05:20:49;;;;;;;47.92;6.40;;;35.20;93.80;;;;;;4992958;28;20042;-77
2021/06/22 05:23:15;;;;;;;37.70;7.20;;;35.80;93.10;;;;;;4967525;28;20467;-79
2021/06/22 05:25:41;;;;;;;43.72;7.20;;;36.30;92.60;;;;;;4975369;28;20057;-79
2021/06/22 05:28:06;;;;;;;42.20;6.93;;;36.40;92.40;;;;;;4989408;28;20027;-79
2021/06/22 05:30:32;;;;;;;45.55;7.00;;;36.70;92.00;;;;;;4981485;28;20034;-77
2021/06/22 05:32:58;;;;;;;46.35;6.82;;;37.50;91.50;;;;;;4987765;28;20483;-77
2021/06/22 05:35:24;;;;;;;30.90;6.38;;;38.10;91.20;;;;;;4991859;28;20023;-80
2021/06/22 05:37:50;;;;;;;49.53;8.68;;;38.50;90.80;;;;;;4984687;28;20014;-79
2021/06/22 05:40:16;;;;;;;45.63;7.30;;;38.90;90.20;;;;;;4987826;28;20026;-78
2021/06/22 05:42:41;;;;;;;48.50;7.18;;;38.50;90.40;;;;;;4962892;28;20038;-78
2021/06/22 05:45:08;;;;;;;30.00;7.15;;;38.80;90.10;;;;;;4965054;28;20019;-78
2021/06/22 05:47:33;;;;;;;29.83;6.75;;;39.60;89.50;;;;;;4982478;28;20379;-81
2021/06/22 05:50:00;;;;;;;35.88;6.95;;;40.30;88.10;;;;;;4983715;28;20023;-81
2021/06/22 05:52:26;;;;;;;39.60;7.28;;;40.60;86.80;;;;;;4989622;28;20050;-80
2021/06/22 05:54:51;;;;;;;40.78;7.30;;;40.20;86.80;;;;;;4992134;28;20026;-81
2021/06/22 05:57:17;;;;;;;38.78;6.93;;;40.30;86.70;;;;;;4992525;28;20080;-81
2021/06/22 05:59:43;;;;;;;44.45;6.22;;;40.50;86.30;;;;;;4992328;28;20022;-79
2021/06/22 06:02:09;;;;;;;48.95;6.40;;;40.30;86.30;;;;;;4992163;28;20034;-78
2021/06/22 06:04:35;;;;;;;38.88;7.22;;;40.20;86.70;;;;;;4991958;28;20023;-78
2021/06/22 06:07:00;;;;;;;31.95;6.50;;;40.10;87.00;;;;;;4991609;28;20064;-77
2021/06/22 06:09:27;;;;;;;47.72;6.57;;;40.90;86.00;;;;;;4992135;28;20065;-77
2021/06/22 06:11:53;;;;;;;50.13;7.65;;;41.20;85.90;;;;;;4992572;28;20031;-77
2021/06/22 06:14:19;;;;;;;43.25;6.35;;;42.00;84.10;;;;;;4992818;28;20019;-76
2021/06/22 06:16:45;;;;;;;35.25;7.28;;;42.50;83.40;;;;;;4991730;28;20018;-76
2021/06/22 06:19:11;;;;;;;38.72;6.72;;;42.20;83.20;;;;;;4992020;28;20514;-76
2021/06/22 06:21:41;;;;;;;48.92;7.20;;;42.50;83.70;;;;;;4992489;28;20034;-76
2021/06/22 06:24:08;;;;;;;47.47;7.60;;;43.20;82.20;;;;;;4991546;28;20352;-76
2021/06/22 06:26:46;;;;;;;47.08;7.47;;;43.90;81.20;;;;;;4991858;28;20264;-77
2021/06/22 06:29:20;;;;;;;39.97;7.25;;;44.50;80.00;;;;;;4991151;28;20054;-75
2021/06/22 06:31:46;;;;;;;45.63;7.35;;;44.60;79.70;;;;;;4980021;28;20014;-76
2021/06/22 06:34:12;;;;;;;40.03;6.57;;;44.50;79.10;;;;;;4991074;28;20026;-76
2021/06/22 06:36:37;;;;;;;37.95;6.10;;;44.00;79.20;;;;;;4991796;28;20042;-76
2021/06/22 06:39:03;;;;;;;56.00;7.07;;;44.40;79.40;;;;;;4990972;28;20057;-74
2021/06/22 06:41:29;;;;;;;33.45;6.88;;;44.00;79.50;;;;;;4991013;28;20034;-79
2021/06/22 06:43:55;;;;;;;48.40;7.40;;;43.10;80.60;;;;;;4990602;28;20030;-76
2021/06/22 06:46:20;;;;;;;36.60;6.43;;;42.30;81.80;;;;;;4990611;28;20030;-77
2021/06/22 06:48:46;;;;;;;37.60;6.88;;;41.60;82.40;;;;;;4991570;28;20356;-75
2021/06/22 06:51:12;;;;;;;50.63;7.82;;;40.80;83.70;;;;;;4991683;28;20065;-76
2021/06/22 06:53:38;;;;;;;46.00;7.35;;;39.90;85.00;;;;;;4986523;28;20429;-73
2021/06/22 06:56:04;;;;;;;43.45;8.25;;;39.10;86.60;;;;;;4980868;28;20050;-75
2021/06/22 06:58:29;;;;;;;43.67;7.95;;;38.50;88.10;;;;;;4978179;28;20023;-74
2021/06/22 07:00:55;;;;;;;40.78;7.38;;;37.60;89.60;;;;;;4974237;28;20035;-74
2021/06/22 07:03:21;;;;;;;43.35;7.28;;;36.70;90.60;;;;;;4978057;28;20380;-74
2021/06/22 07:05:47;;;;;;;40.65;7.50;;;36.50;91.40;;;;;;4982309;28;20026;-73
2021/06/22 07:08:13;;;;;;;47.42;7.55;;;36.20;91.40;;;;;;4979835;28;20027;-75
2021/06/22 07:10:41;;;;;;;46.70;8.10;;;36.10;91.60;;;;;;4981838;28;20022;-74
2021/06/22 07:13:13;;;;;;;47.22;8.15;;;36.10;91.60;;;;;;4975499;28;20038;-74
2021/06/22 07:21:27;;;;;;;55.90;7.97;;;35.80;91.90;;;;;;5729635;23;20041;-74
2021/06/22 07:23:52;;;;;;;39.42;7.43;;;35.80;91.70;;;;;;5048154;23;20053;-76
2021/06/22 07:26:19;;;;;;;55.17;8.13;;;35.50;91.20;;;;;;5044256;28;20029;-78
2021/06/22 07:28:45;;;;;;;36.22;7.03;;;35.00;91.90;;;;;;5039681;28;20761;-75
2021/06/22 07:31:12;;;;;;;55.15;8.13;;;34.10;92.90;;;;;;5029816;28;20079;-75
2021/06/22 07:33:39;;;;;;;60.88;9.13;;;34.10;92.50;;;;;;5038504;28;20024;-76
2021/06/22 07:36:07;;;;;;;52.25;7.90;;;34.20;92.40;;;;;;5044194;28;20025;-76
2021/06/22 07:38:33;;;;;;;52.47;8.88;;;34.20;92.60;;;;;;5041687;28;20029;-75
2021/06/22 07:40:58;;;;;;;51.30;7.32;;;34.30;92.50;;;;;;5046572;28;20021;-76
2021/06/22 07:43:24;;;;;;;44.20;8.48;;;34.30;92.30;;;;;;5043843;28;20075;-74
2021/06/22 07:45:50;;;;;;;45.13;8.45;;;34.30;92.60;;;;;;5040749;28;20018;-76
2021/06/22 07:48:16;;;;;;;48.60;7.63;;;34.30;92.90;;;;;;5033709;28;20029;-76
2021/06/22 07:50:42;;;;;;;46.03;9.63;;;34.40;92.90;;;;;;5034496;28;20099;-76
2021/06/22 07:53:08;;;;;;;46.53;7.93;;;34.70;93.00;;;;;;5033186;28;20100;-76
2021/06/22 07:55:34;;;;;;;56.17;8.40;;;34.80;92.80;;;;;;5020285;28;20025;-76
2021/06/22 07:57:59;;;;;;;44.83;7.15;;;34.80;92.80;;;;;;5031468;28;20690;-75
2021/06/22 08:00:43;;;;;;;51.30;7.72;;;34.90;92.70;;;;;;5033743;28;20036;-76
2021/06/22 08:03:11;;;;;;;39.67;7.85;;;34.90;92.80;;;;;;5039116;28;20564;-76
2021/06/22 08:05:38;;;;;;;53.13;8.32;;;34.70;93.10;;;;;;5037745;28;20113;-76
2021/06/22 08:08:05;;;;;;;57.28;7.93;;;34.60;93.10;;;;;;5038904;28;20047;-76
2021/06/22 08:10:31;;;;;;;52.40;8.55;;;34.50;93.30;;;;;;5046006;28;20017;-76
2021/06/22 08:12:57;;;;;;;54.10;8.45;;;34.50;93.50;;;;;;5043027;28;20040;-76
2021/06/22 08:15:23;;;;;;;42.53;7.40;;;34.40;94.20;;;;;;5044682;28;20025;-75
2021/06/22 08:17:49;;;;;;;48.92;7.60;;;34.20;94.20;;;;;;5025147;28;20021;-75
2021/06/22 08:20:15;;;;;;;39.28;7.93;;;34.00;94.30;;;;;;5038850;28;20465;-76
2021/06/22 08:22:41;;;;;;;37.83;7.97;;;33.80;94.60;;;;;;5040712;28;20041;-76
2021/06/22 08:25:08;;;;;;;43.72;7.10;;;33.70;94.80;;;;;;5046399;28;20036;-76
2021/06/22 08:27:34;;;;;;;40.38;7.88;;;33.50;94.90;;;;;;5035691;28;20116;-77
2021/06/22 08:30:00;;;;;;;53.35;8.52;;;33.30;94.90;;;;;;5044721;28;20579;-75
2021/06/22 08:32:26;;;;;;;37.42;7.40;;;33.20;95.10;;;;;;5049046;28;20025;-76
2021/06/22 08:34:52;;;;;;;36.47;7.40;;;32.90;95.40;;;;;;5041777;28;20026;-76
2021/06/22 08:37:17;;;;;;;46.40;8.25;;;32.70;95.90;;;;;;5037128;28;20400;-77
2021/06/22 08:39:43;;;;;;;46.38;8.23;;;32.70;96.20;;;;;;5043598;28;20028;-76
2021/06/22 08:42:11;;;;;;;52.97;9.32;;;32.80;96.60;;;;;;5032402;28;20029;-76
2021/06/22 08:44:38;;;;;;;51.13;8.38;;;33.20;95.90;;;;;;5034705;28;20025;-76
2021/06/22 08:47:04;;;;;;;53.63;8.25;;;33.50;95.50;;;;;;5034646;28;20030;-76
2021/06/22 08:49:33;;;;;;;46.08;7.88;;;33.80;95.10;;;;;;5039064;28;20531;-75
2021/06/22 08:52:00;;;;;;;45.78;7.82;;;34.20;94.90;;;;;;5044893;28;20132;-76
2021/06/22 08:54:26;;;;;;;47.20;7.63;;;34.60;94.70;;;;;;5034038;28;20068;-75
2021/06/22 08:56:54;;;;;;;43.65;7.68;;;34.80;94.80;;;;;;5032335;28;20037;-75
2021/06/22 08:59:20;;;;;;;33.78;7.07;;;34.60;94.70;;;;;;5031962;28;20397;-76
2021/06/22 09:01:46;;;;;;;63.70;8.07;;;34.20;94.80;;;;;;5032877;28;20033;-75
2021/06/22 09:04:12;;;;;;;43.42;6.65;;;33.60;94.50;;;;;;5045427;28;20087;-76
2021/06/22 09:06:42;;;;;;;44.80;7.75;;;33.20;93.80;;;;;;5032586;28;20025;-75
2021/06/22 09:09:09;;;;;;;41.42;7.43;;;33.10;94.10;;;;;;5031993;28;20048;-75
2021/06/22 09:11:35;;;;;;;42.85;6.78;;;32.80;93.60;;;;;;5035622;28;20473;-75
2021/06/22 09:14:04;;;;;;;50.90;6.50;;;32.90;93.60;;;;;;5041322;28;20029;-75
2021/06/22 09:16:30;;;;;;;35.85;7.53;;;33.20;93.00;;;;;;5026499;28;20029;-76
2021/06/22 09:19:09;;;;;;;49.35;6.88;;;33.50;93.20;;;;;;5039216;28;20021;-77
2021/06/22 09:21:40;;;;;;;55.08;6.65;;;33.40;93.20;;;;;;5028908;28;20033;-76
2021/06/22 09:24:18;;;;;;;46.33;6.07;;;33.30;93.20;;;;;;5047032;28;20041;-75
2021/06/22 09:26:45;;;;;;;51.22;6.75;;;33.30;93.90;;;;;;5041460;28;20029;-76
2021/06/22 09:29:14;;;;;;;54.00;8.20;;;33.20;93.90;;;;;;5047902;28;20025;-76
2021/06/22 09:32:00;;;;;;;41.03;6.70;;;33.30;93.80;;;;;;5044860;28;20017;-77
2021/06/22 09:34:28;;;;;;;51.03;7.82;;;33.40;93.70;;;;;;5045993;28;20025;-77
2021/06/22 09:36:58;;;;;;;38.10;6.75;;;33.30;93.90;;;;;;5045308;28;20024;-76
2021/06/22 09:39:26;;;;;;;45.33;7.07;;;33.30;94.00;;;;;;5043017;28;20449;-77
2021/06/22 09:41:55;;;;;;;53.20;6.50;;;33.40;92.70;;;;;;5044612;28;20435;-77
2021/06/22 09:44:30;;;;;;;47.25;6.72;;;33.50;92.80;;;;;;5044456;28;20468;-76
2021/06/22 09:46:58;;;;;;;37.28;6.60;;;33.90;92.40;;;;;;5046992;28;20029;-77
2021/06/22 09:49:35;;;;;;;46.97;7.43;;;34.20;91.70;;;;;;5044133;28;20029;-77
2021/06/22 09:52:08;;;;;;;58.35;7.20;;;34.30;91.40;;;;;;5041487;28;20525;-76
2021/06/22 09:54:44;;;;;;;45.53;6.75;;;34.20;92.10;;;;;;5043516;28;20071;-76
2021/06/22 09:57:14;;;;;;;35.83;6.75;;;34.20;92.30;;;;;;5046813;28;20060;-76
2021/06/22 09:59:50;;;;;;;33.55;5.97;;;34.40;91.40;;;;;;5049730;28;20021;-78
2021/06/22 10:02:16;;;;;;;50.45;7.65;;;34.40;90.40;;;;;;5050017;28;20032;-77
2021/06/22 10:04:48;;;;;;;45.63;7.80;;;34.50;90.70;;;;;;5042210;28;20022;-77
2021/06/22 10:07:16;;;;;;;41.42;6.53;;;34.60;90.50;;;;;;5047135;28;20041;-77
2021/06/22 10:09:42;;;;;;;34.95;5.60;;;34.60;90.80;;;;;;5039398;28;20021;-76
2021/06/22 10:12:10;;;;;;;48.78;6.80;;;34.40;90.60;;;;;;5041033;28;20021;-77
2021/06/22 10:14:38;;;;;;;51.60;7.07;;;34.30;90.40;;;;;;5042219;28;20009;-78
2021/06/22 10:17:21;;;;;;;32.13;6.78;;;34.10;90.70;;;;;;5035746;28;20033;-76
2021/06/22 10:19:48;;;;;;;51.13;7.35;;;34.10;90.70;;;;;;5040388;28;20025;-77
2021/06/22 10:22:21;;;;;;;60.67;7.15;;;34.00;92.10;;;;;;5040824;28;20054;-76
2021/06/22 10:24:47;;;;;;;46.47;7.15;;;33.90;93.00;;;;;;5037215;28;20035;-76
2021/06/22 10:27:16;;;;;;;50.08;7.00;;;33.70;93.00;;;;;;5040555;28;20039;-77
2021/06/22 10:29:50;;;;;;;45.75;7.40;;;33.80;92.00;;;;;;5047822;28;20747;-76
2021/06/22 10:32:17;;;;;;;52.25;6.72;;;33.90;91.40;;;;;;5038150;28;20515;-77
2021/06/22 10:35:00;;;;;;;37.92;6.60;;;33.90;90.80;;;;;;5044788;28;20085;-77
2021/06/22 10:37:35;;;;;;;38.95;8.40;;;33.70;89.60;;;;;;5041225;28;20095;-77
2021/06/22 10:40:11;;;;;;;45.72;6.57;;;33.70;88.60;;;;;;5044482;28;20414;-77
2021/06/22 10:42:47;;;;;;;39.58;6.20;;;33.70;89.40;;;;;;5048217;28;20112;-77
2021/06/22 10:45:13;;;;;;;43.70;5.60;;;33.60;90.10;;;;;;5047181;28;20493;-77
2021/06/22 10:47:43;;;;;;;38.70;6.47;;;33.60;90.50;;;;;;5036826;28;20068;-76
2021/06/22 10:50:22;;;;;;;44.33;5.75;;;33.50;90.80;;;;;;5039636;28;20033;-77
2021/06/22 10:53:00;;;;;;;39.13;6.65;;;33.40;90.60;;;;;;5034666;28;20482;-77
2021/06/22 10:55:33;;;;;;;37.15;6.00;;;33.30;90.70;;;;;;5035810;28;20116;-78
2021/06/22 10:58:02;;;;;;;36.17;6.55;;;33.30;91.20;;;;;;5034717;28;20021;-77
2021/06/22 11:00:37;;;;;;;49.33;6.75;;;33.00;91.70;;;;;;5039188;28;20023;-76
2021/06/22 11:03:36;;;;;;;43.58;7.20;;;32.80;91.60;;;;;;5045694;28;20068;-77
2021/06/22 11:06:14;;;;;;;40.72;5.88;;;32.80;91.60;;;;;;5017017;28;20079;-76
2021/06/22 11:08:43;;;;;;;53.67;6.95;;;32.70;92.00;;;;;;5049496;28;20056;-77
2021/06/22 11:11:09;;;;;;;42.78;6.40;;;32.80;92.40;;;;;;5044930;28;20024;-77
2021/06/22 11:13:47;;;;;;;27.17;5.50;;;32.80;92.70;;;;;;5042225;28;20012;-77
2021/06/22 11:16:13;;;;;;;47.33;6.30;;;32.90;92.40;;;;;;5047012;28;20075;-77
2021/06/22 11:18:54;;;;;;;37.42;6.85;;;33.00;93.00;;;;;;5051914;28;20025;-77
2021/06/22 11:21:25;;;;;;;33.97;6.07;;;33.00;93.30;;;;;;5045316;28;20396;-79
2021/06/22 11:24:16;;;;;;;44.63;6.57;;;32.80;93.30;;;;;;5042531;28;20069;-78
2021/06/22 11:26:44;;;;;;;37.80;6.85;;;32.80;93.20;;;;;;5024907;28;20116;-77
2021/06/22 11:29:21;;;;;;;42.67;7.90;;;32.80;93.80;;;;;;5047508;28;20133;-78
2021/06/22 11:31:50;;;;;;;35.95;6.70;;;32.90;94.20;;;;;;5049432;28;20040;-77
2021/06/22 11:34:21;;;;;;;43.05;7.10;;;32.90;94.40;;;;;;5018114;28;20028;-77
2021/06/22 11:36:51;;;;;;;;;;;32.90;94.10;;;;;;5048326;28;20017;-77
2021/06/22 11:39:19;;;;;;;52.25;6.95;;;33.00;93.10;;;;;;5046753;28;19905;-77
2021/06/22 11:44:37;;;;;;;42.25;6.38;;;33.30;93.00;;;;;;5042612;28;20485;-77
2021/06/22 11:47:04;;;;;;;43.08;6.22;;;33.40;93.10;;;;;;5050458;28;20461;-77
2021/06/22 11:49:43;;;;;;;41.88;6.13;;;33.40;93.00;;;;;;5043916;28;20651;-76
2021/06/22 11:52:12;;;;;;;48.38;7.00;;;33.30;92.80;;;;;;5049869;28;20417;-77
2021/06/22 11:54:47;;;;;;;33.50;7.03;;;33.30;93.10;;;;;;5046377;28;20607;-77
2021/06/22 11:57:27;;;;;;;51.58;7.05;;;33.30;93.10;;;;;;5049352;28;20017;-77
2021/06/22 11:59:53;;;;;;;43.83;7.63;;;33.20;93.40;;;;;;5047910;28;20369;-76
2021/06/22 12:02:19;;;;;;;34.15;6.15;;;33.10;93.10;;;;;;5033461;28;20060;-76
2021/06/22 12:04:47;;;;;;;37.88;6.68;;;32.90;93.40;;;;;;5047169;28;20098;-77
2021/06/22 12:07:14;;;;;;;47.50;6.50;;;32.60;93.60;;;;;;5041612;28;20025;-77
2021/06/22 12:09:40;;;;;;;46.42;7.18;;;32.60;93.80;;;;;;5040740;28;20104;-77
2021/06/22 12:12:07;;;;;;;42.15;6.90;;;32.60;94.00;;;;;;5040712;28;20081;-77
2021/06/22 12:14:34;;;;;;;53.90;7.65;;;32.70;93.70;;;;;;5019854;28;20026;-76
2021/06/22 12:17:11;;;;;;;46.83;7.07;;;32.70;94.10;;;;;;5037864;28;20033;-77
2021/06/22 12:19:36;;;;;;;65.93;8.57;;;32.70;94.70;;;;;;5036932;28;20036;-77
2021/06/22 12:22:04;;;;;;;28.92;6.05;;;32.60;94.80;;;;;;5038312;28;20037;-77
2021/06/22 12:24:29;;;;;;;54.55;8.07;;;32.50;94.70;;;;;;5034711;28;20416;-76
2021/06/22 12:26:55;;;;;;;62.97;7.25;;;32.40;95.10;;;;;;5034687;28;20025;-77
2021/06/22 12:29:30;;;;;;;55.88;6.97;;;32.30;95.10;;;;;;5046311;28;20372;-78
2021/06/22 12:32:05;;;;;;;60.33;9.15;;;32.40;94.80;;;;;;5040676;28;20485;-76
2021/06/22 12:34:33;;;;;;;44.47;6.70;;;32.40;95.00;;;;;;5047363;28;20385;-77
2021/06/22 12:36:59;;;;;;;44.17;7.35;;;32.30;94.60;;;;;;5050266;28;20051;-78
2021/06/22 12:39:34;;;;;;;52.20;6.88;;;32.20;94.30;;;;;;5042136;28;20469;-78
2021/06/22 12:42:07;;;;;;;60.40;8.73;;;32.10;94.90;;;;;;5033351;28;20052;-77
2021/06/22 12:44:33;;;;;;;38.65;7.25;;;32.10;94.90;;;;;;5046288;28;20354;-78
2021/06/22 12:47:07;;;;;;;65.85;8.75;;;32.10;94.80;;;;;;5039590;28;20860;-78
2021/06/22 12:49:36;;;;;;;57.17;8.43;;;32.20;95.20;;;;;;5028521;28;20022;-77